Terminal Aerodrome Forecast
Issued by NWS

Home | Current Version | Previous Version | Text Only | Print | Product List | Glossary On
Versions: 1 2 3 4 5 6 7 8 9 10 11 12 13 14 15 16 17 18 19 20 21 22 23 24 25 26 27 28 29 30 31 32 33 34 35 36 37 38 39
000
FTUS43 KDLH 301700 RRA
TAFHIB
TAF
KHIB 301741Z 3018/0118 12011KT P6SM OVC012
     FM302000 14011KT P6SM BKN015
     FM010700 12006KT P6SM OVC015
     FM011200 14003KT P6SM VCSH OVC009=

USA.gov is the U.S. government's official web portal to all federal, state and local government web resources and services.